createdAt,value
2022-12-04T00:01:11.794Z,101385.44
2022-12-04T00:03:39.233Z,101374.19
2022-12-04T00:06:08.416Z,101387.69
2022-12-04T00:08:35.843Z,101385.50
2022-12-04T00:11:04.399Z,101376.41
2022-12-04T00:13:31.409Z,101379.94
2022-12-04T00:15:59.704Z,101379.91
2022-12-04T00:18:26.719Z,101370.84
2022-12-04T00:20:53.693Z,101375.28
2022-12-04T00:23:20.683Z,101374.75
2022-12-04T00:25:48.931Z,101368.13
2022-12-04T00:28:16.926Z,101363.13
2022-12-04T00:30:44.203Z,101371.13
2022-12-04T00:33:13.137Z,101372.16
2022-12-04T00:35:40.172Z,101374.91
2022-12-04T00:38:07.012Z,101368.81
2022-12-04T00:40:33.898Z,101358.72
2022-12-04T00:43:00.850Z,101368.66
2022-12-04T00:45:27.898Z,101360.88
2022-12-04T00:47:54.736Z,101364.16
2022-12-04T00:50:23.107Z,101357.63
2022-12-04T00:52:49.971Z,101351.84
2022-12-04T00:55:16.870Z,101364.16
2022-12-04T00:57:43.885Z,101357.31
2022-12-04T01:00:11.175Z,101354.31
2022-12-04T01:02:38.043Z,101356.44
2022-12-04T01:05:05.317Z,101365.00
2022-12-04T01:07:33.654Z,101367.13
2022-12-04T01:10:00.452Z,101358.03
2022-12-04T01:12:27.256Z,101357.44
2022-12-04T01:14:54.064Z,101349.41
2022-12-04T01:17:20.891Z,101355.47
2022-12-04T01:19:47.782Z,101345.75
2022-12-04T01:22:14.596Z,101348.69
2022-12-04T01:24:42.909Z,101347.00
2022-12-04T01:27:09.681Z,101348.91
2022-12-04T01:29:36.521Z,101353.53
2022-12-04T01:32:03.564Z,101346.13
2022-12-04T01:34:30.710Z,101356.00
2022-12-04T01:36:57.579Z,101352.59
2022-12-04T01:39:24.405Z,101347.69
2022-12-04T01:41:52.564Z,101354.19
2022-12-04T01:44:22.362Z,101352.78
2022-12-04T01:46:52.267Z,101350.78
2022-12-04T01:49:22.465Z,101349.16
2022-12-04T01:51:52.895Z,101350.56
2022-12-04T01:54:28.585Z,101358.41
2022-12-04T01:57:00.521Z,101344.94
2022-12-04T01:59:32.206Z,101337.22
2022-12-04T02:02:04.037Z,101340.78
2022-12-04T02:04:31.803Z,101346.00
2022-12-04T02:06:58.708Z,101348.69
2022-12-04T02:09:27.076Z,101345.09
2022-12-04T02:12:03.927Z,101347.03
2022-12-04T02:14:37.852Z,101348.22
2022-12-04T02:17:11.102Z,101347.06
2022-12-04T02:19:50.895Z,101341.31
2022-12-04T02:22:24.858Z,101342.72
2022-12-04T02:24:53.803Z,101333.47
2022-12-04T02:27:28.550Z,101330.72
2022-12-04T02:29:59.356Z,101321.59
2022-12-04T02:32:30.197Z,101321.66
2022-12-04T02:34:59.090Z,101325.03
2022-12-04T02:37:30.057Z,101328.31
2022-12-04T02:40:00.872Z,101324.97
2022-12-04T02:42:31.785Z,101323.56
2022-12-04T02:45:02.139Z,101329.38
2022-12-04T02:47:29.979Z,101325.81
2022-12-04T02:49:58.903Z,101327.97
2022-12-04T02:52:28.990Z,101331.81
2022-12-04T02:54:57.884Z,101328.91
2022-12-04T02:57:26.666Z,101332.06
2022-12-04T02:59:55.337Z,101328.50
2022-12-04T03:02:28.465Z,101334.28
2022-12-04T03:04:56.091Z,101330.44
2022-12-04T03:07:26.321Z,101328.38
2022-12-04T03:09:54.994Z,101332.09
2022-12-04T03:12:24.431Z,101328.38
2022-12-04T03:14:52.358Z,101325.06
2022-12-04T03:17:21.718Z,101320.94
2022-12-04T03:19:51.615Z,101318.72
2022-12-04T03:22:19.717Z,101312.09
2022-12-04T03:24:50.344Z,101317.91
2022-12-04T03:27:22.181Z,101317.44
2022-12-04T03:29:52.906Z,101308.28
2022-12-04T03:32:23.044Z,101315.28
2022-12-04T03:34:54.122Z,101311.69
2022-12-04T03:37:24.518Z,101305.59
2022-12-04T03:39:56.717Z,101304.00
2022-12-04T03:42:25.686Z,101309.72
2022-12-04T03:44:56.691Z,101313.84
2022-12-04T03:47:26.362Z,101318.16
2022-12-04T03:49:57.901Z,101320.53
2022-12-04T03:52:27.320Z,101312.44
2022-12-04T03:54:56.664Z,101322.09
2022-12-04T03:57:25.870Z,101321.00
2022-12-04T03:59:56.258Z,101320.38
2022-12-04T04:02:24.550Z,101320.53
2022-12-04T04:04:53.037Z,101316.06
2022-12-04T04:07:22.839Z,101326.63
2022-12-04T04:09:50.638Z,101316.59
2022-12-04T04:12:19.984Z,101311.53
2022-12-04T04:15:08.117Z,101319.78
2022-12-04T04:18:05.762Z,101316.63
2022-12-04T04:20:53.978Z,101312.75
2022-12-04T04:23:41.921Z,101322.13
2022-12-04T04:26:08.991Z,101316.63
2022-12-04T04:28:36.571Z,101311.41
2022-12-04T04:31:06.345Z,101317.38
2022-12-04T04:33:36.077Z,101320.25
2022-12-04T04:36:06.406Z,101312.63
2022-12-04T04:38:37.863Z,101313.97
2022-12-04T04:41:06.554Z,101314.41
2022-12-04T04:43:37.100Z,101310.53
2022-12-04T04:46:06.076Z,101305.69
2022-12-04T04:48:34.880Z,101314.44
2022-12-04T04:51:03.027Z,101305.53
2022-12-04T04:53:33.575Z,101311.81
2022-12-04T04:56:01.584Z,101307.16
2022-12-04T04:58:28.175Z,101313.44
2022-12-04T05:00:58.017Z,101316.69
2022-12-04T05:03:24.991Z,101317.66
2022-12-04T05:05:51.732Z,101320.41
2022-12-04T05:08:18.421Z,101315.13
2022-12-04T05:10:45.021Z,101314.03
2022-12-04T05:13:13.473Z,101322.41
2022-12-04T05:15:40.437Z,101312.75
2022-12-04T05:18:07.431Z,101308.59
2022-12-04T05:20:33.990Z,101316.00
2022-12-04T05:23:00.739Z,101313.88
2022-12-04T05:25:28.016Z,101327.00
2022-12-04T05:27:54.578Z,101324.03
2022-12-04T05:30:22.516Z,101321.88
2022-12-04T05:32:49.090Z,101323.00
2022-12-04T05:35:15.758Z,101322.19
2022-12-04T05:37:42.353Z,101319.72
2022-12-04T05:40:09.543Z,101318.44
2022-12-04T05:42:36.149Z,101325.69
2022-12-04T05:45:03.080Z,101320.78
2022-12-04T05:47:31.072Z,101320.88
2022-12-04T05:49:58.394Z,101329.50
2022-12-04T05:52:25.162Z,101326.41
2022-12-04T05:54:51.702Z,101331.38
2022-12-04T05:57:18.337Z,101327.72
2022-12-04T05:59:44.919Z,101312.28
2022-12-04T06:02:11.765Z,101313.19
2022-12-04T06:04:39.753Z,101309.34
2022-12-04T06:07:06.963Z,101305.91
2022-12-04T06:09:33.631Z,101309.66
2022-12-04T06:12:00.288Z,101312.16
2022-12-04T06:14:26.858Z,101308.63
2022-12-04T06:16:53.501Z,101306.72
2022-12-04T06:19:20.914Z,101311.28
2022-12-04T06:21:49.851Z,101310.81
2022-12-04T06:24:17.529Z,101303.09
2022-12-04T06:27:11.243Z,101305.66
2022-12-04T06:29:31.124Z,101310.91
2022-12-04T06:31:57.771Z,101294.06
2022-12-04T06:34:24.377Z,101310.66
2022-12-04T06:36:52.373Z,101301.28
2022-12-04T06:39:19.331Z,101315.63
2022-12-04T06:41:47.557Z,101312.78
2022-12-04T06:44:14.451Z,101305.13
2022-12-04T06:46:46.532Z,101307.13
2022-12-04T06:49:14.056Z,101308.78
2022-12-04T06:51:40.989Z,101309.50
2022-12-04T06:54:09.423Z,101313.03
2022-12-04T06:56:36.043Z,101309.47
2022-12-04T06:59:03.632Z,101310.81
2022-12-04T07:01:31.126Z,101311.97
2022-12-04T07:03:57.834Z,101308.69
2022-12-04T07:06:25.003Z,101316.19
2022-12-04T07:08:53.217Z,101317.88
2022-12-04T07:11:22.077Z,101322.94
2022-12-04T07:13:48.756Z,101321.97
2022-12-04T07:16:16.169Z,101327.41
2022-12-04T07:18:42.760Z,101326.88
2022-12-04T07:21:16.389Z,101333.50
2022-12-04T07:23:44.115Z,101330.41
2022-12-04T07:26:11.763Z,101334.22
2022-12-04T07:28:40.285Z,101329.38
2022-12-04T07:31:07.806Z,101343.16
2022-12-04T07:33:34.716Z,101339.25
2022-12-04T07:36:02.389Z,101346.47
2022-12-04T07:38:29.808Z,101343.19
2022-12-04T07:40:56.533Z,101336.09
2022-12-04T07:43:23.223Z,101337.34
2022-12-04T07:45:51.245Z,101336.53
2022-12-04T07:48:17.914Z,101345.84
2022-12-04T07:50:44.586Z,101352.41
2022-12-04T07:53:11.188Z,101346.69
2022-12-04T07:55:37.794Z,101352.22
2022-12-04T07:58:04.374Z,101357.81
2022-12-04T08:00:30.960Z,101359.91
2022-12-04T08:02:58.918Z,101361.78
2022-12-04T08:05:25.493Z,101367.53
2022-12-04T08:07:52.128Z,101362.06
2022-12-04T08:10:18.939Z,101369.50
2022-12-04T08:12:45.535Z,101367.09
2022-12-04T08:15:12.114Z,101373.34
2022-12-04T08:17:38.748Z,101373.03
2022-12-04T08:20:07.580Z,101371.38
2022-12-04T08:22:34.190Z,101368.50
2022-12-04T08:25:00.918Z,101372.53
2022-12-04T08:27:27.542Z,101368.66
2022-12-04T08:29:54.274Z,101369.31
2022-12-04T08:32:21.136Z,101369.63
2022-12-04T08:34:54.107Z,101371.50
2022-12-04T08:37:23.860Z,101368.09
2022-12-04T08:39:50.519Z,101376.22
2022-12-04T08:42:17.091Z,101367.06
2022-12-04T08:44:43.676Z,101368.19
2022-12-04T08:47:10.332Z,101380.72
2022-12-04T08:49:36.994Z,101367.69
2022-12-04T08:52:03.632Z,101373.97
2022-12-04T08:54:35.954Z,101358.75
2022-12-04T08:57:03.324Z,101376.47
2022-12-04T08:59:30.056Z,101370.06
2022-12-04T09:01:56.719Z,101372.41
2022-12-04T09:04:23.423Z,101378.78
2022-12-04T09:06:50.168Z,101371.13
2022-12-04T09:09:16.706Z,101369.34
2022-12-04T09:11:46.509Z,101378.75
2022-12-04T09:14:13.111Z,101386.81
2022-12-04T09:16:39.790Z,101380.84
2022-12-04T09:19:06.476Z,101374.69
2022-12-04T09:21:33.133Z,101381.91
2022-12-04T09:24:00.260Z,101371.16
2022-12-04T09:26:28.387Z,101379.19
2022-12-04T09:28:56.699Z,101366.47
2022-12-04T09:31:23.918Z,101364.06
2022-12-04T09:33:51.055Z,101370.91
2022-12-04T09:36:18.027Z,101367.28
2022-12-04T09:38:45.526Z,101371.72
2022-12-04T09:41:20.599Z,101379.13
2022-12-04T09:43:49.646Z,101375.06
2022-12-04T09:46:19.032Z,101381.16
2022-12-04T09:48:48.555Z,101379.56
2022-12-04T09:51:18.920Z,101383.94
2022-12-04T09:53:47.538Z,101393.22
2022-12-04T09:56:15.505Z,101390.50
2022-12-04T09:58:45.410Z,101387.47
2022-12-04T10:01:18.473Z,101388.34
2022-12-04T10:03:46.492Z,101392.72
2022-12-04T10:06:16.375Z,101389.72
2022-12-04T10:08:45.107Z,101388.13
2022-12-04T10:11:14.213Z,101391.25
2022-12-04T10:13:49.935Z,101388.28
2022-12-04T10:16:21.278Z,101386.13
2022-12-04T10:18:53.609Z,101384.94
2022-12-04T10:21:26.008Z,101386.09
2022-12-04T10:23:58.529Z,101393.34
2022-12-04T10:26:28.746Z,101387.53
2022-12-04T10:28:57.009Z,101387.78
2022-12-04T10:31:24.866Z,101382.88
2022-12-04T10:33:55.477Z,101391.16
2022-12-04T10:36:23.697Z,101388.13
2022-12-04T10:38:52.540Z,101387.31
2022-12-04T10:41:24.622Z,101388.69
2022-12-04T10:43:51.739Z,101377.91
2022-12-04T10:46:21.399Z,101387.25
2022-12-04T10:48:49.223Z,101389.50
2022-12-04T10:51:17.836Z,101376.00
2022-12-04T10:53:45.338Z,101383.44
2022-12-04T10:56:12.771Z,101373.25
2022-12-04T10:58:39.438Z,101379.56
2022-12-04T11:01:07.627Z,101372.13
2022-12-04T11:03:35.096Z,101371.28
2022-12-04T11:06:03.182Z,101376.78
2022-12-04T11:08:35.506Z,101376.00
2022-12-04T11:11:03.256Z,101372.94
2022-12-04T11:13:30.356Z,101371.25
2022-12-04T11:15:57.460Z,101374.34
2022-12-04T11:18:25.013Z,101371.00
2022-12-04T11:20:53.781Z,101366.88
2022-12-04T11:23:20.720Z,101361.63
2022-12-04T11:25:50.211Z,101363.03
2022-12-04T11:28:39.787Z,101351.13
2022-12-04T11:31:05.891Z,101355.56
2022-12-04T11:33:34.339Z,101356.38
2022-12-04T11:36:03.090Z,101358.06
2022-12-04T11:38:32.139Z,101354.72
2022-12-04T11:41:02.008Z,101351.16
2022-12-04T11:43:29.566Z,101351.16
2022-12-04T11:45:57.295Z,101345.91
2022-12-04T11:48:24.278Z,101349.50
2022-12-04T11:50:54.608Z,101345.91
2022-12-04T11:53:24.236Z,101343.69
2022-12-04T11:56:07.445Z,101333.50
2022-12-04T11:58:50.809Z,101334.31
2022-12-04T12:01:25.118Z,101333.47
2022-12-04T12:04:02.700Z,101330.44
2022-12-04T12:06:32.582Z,101329.94
2022-12-04T12:09:04.197Z,101323.28
2022-12-04T12:11:32.956Z,101315.59
2022-12-04T12:14:06.682Z,101306.44
2022-12-04T12:16:39.464Z,101309.75
2022-12-04T12:19:15.705Z,101308.66
2022-12-04T12:21:47.502Z,101300.38
2022-12-04T12:24:19.641Z,101299.56
2022-12-04T12:26:49.599Z,101297.34
2022-12-04T12:29:21.963Z,101302.59
2022-12-04T12:32:01.780Z,101299.25
2022-12-04T12:34:33.014Z,101293.22
2022-12-04T12:37:01.697Z,101292.94
2022-12-04T12:39:34.824Z,101292.66
2022-12-04T12:42:01.798Z,101291.56
2022-12-04T12:44:34.676Z,101291.56
2022-12-04T12:47:05.177Z,101284.94
2022-12-04T12:49:35.202Z,101291.31
2022-12-04T12:52:06.098Z,101282.47
2022-12-04T12:54:36.469Z,101279.41
2022-12-04T12:57:05.008Z,101286.88
2022-12-04T12:59:33.719Z,101283.56
2022-12-04T13:02:05.909Z,101290.72
2022-12-04T13:04:35.910Z,101290.47
2022-12-04T13:07:06.626Z,101287.44
2022-12-04T13:09:35.241Z,101273.34
2022-12-04T13:12:04.568Z,101281.09
2022-12-04T13:14:31.177Z,101276.94
2022-12-04T13:17:02.131Z,101279.16
2022-12-04T13:19:31.617Z,101271.44
2022-12-04T13:22:05.345Z,101268.69
2022-12-04T13:24:41.069Z,101263.44
2022-12-04T13:27:11.899Z,101278.06
2022-12-04T13:29:44.742Z,101263.44
2022-12-04T13:32:30.802Z,101273.63
2022-12-04T13:35:02.688Z,101275.84
2022-12-04T13:37:34.524Z,101277.50
2022-12-04T13:40:19.969Z,101286.03
2022-12-04T13:42:46.552Z,101277.75
2022-12-04T13:45:24.061Z,101282.47
2022-12-04T13:47:57.715Z,101288.25
2022-12-04T13:50:29.121Z,101286.31
2022-12-04T13:52:55.904Z,101295.16
2022-12-04T13:55:24.061Z,101294.63
2022-12-04T13:57:54.307Z,101296.00
2022-12-04T14:00:25.877Z,101293.22
2022-12-04T14:02:54.115Z,101297.66
2022-12-04T14:05:28.513Z,101297.34
2022-12-04T14:08:07.291Z,101310.03
2022-12-04T14:10:35.859Z,101309.22
2022-12-04T14:13:04.575Z,101307.00
2022-12-04T14:15:31.935Z,101306.97
2022-12-04T14:18:00.104Z,101303.69
2022-12-04T14:20:29.294Z,101300.91
2022-12-04T14:23:06.766Z,101303.16
2022-12-04T14:25:35.608Z,101303.63
2022-12-04T14:28:12.761Z,101307.53
2022-12-04T14:30:40.151Z,101305.88
2022-12-04T14:33:09.133Z,101312.50
2022-12-04T14:35:43.426Z,101324.38
2022-12-04T14:38:15.330Z,101313.88
2022-12-04T14:40:44.419Z,101321.03
2022-12-04T14:43:16.818Z,101322.38
2022-12-04T14:45:45.396Z,101314.09
2022-12-04T14:48:18.464Z,101325.19
2022-12-04T14:50:50.478Z,101328.16
2022-12-04T14:53:23.633Z,101325.44
2022-12-04T14:55:55.793Z,101324.66
2022-12-04T14:58:34.445Z,101320.44
2022-12-04T15:01:02.177Z,101327.94
2022-12-04T15:03:30.434Z,101321.28
2022-12-04T15:06:06.570Z,101332.06
2022-12-04T15:08:33.606Z,101328.75
2022-12-04T15:11:18.664Z,101331.00
2022-12-04T15:13:45.198Z,101327.13
2022-12-04T15:16:16.815Z,101326.25
2022-12-04T15:18:52.810Z,101327.41
2022-12-04T15:21:21.710Z,101331.25
2022-12-04T15:23:49.153Z,101329.03
2022-12-04T15:26:17.616Z,101327.63
2022-12-04T15:28:46.337Z,101336.06
2022-12-04T15:31:14.551Z,101330.91
2022-12-04T15:33:41.388Z,101330.09
2022-12-04T15:36:09.552Z,101326.00
2022-12-04T15:38:37.613Z,101324.28
2022-12-04T15:41:04.530Z,101326.78
2022-12-04T15:43:32.040Z,101341.13
2022-12-04T15:45:59.104Z,101337.75
2022-12-04T15:48:27.091Z,101344.66
2022-12-04T15:50:58.052Z,101346.38
2022-12-04T15:53:26.270Z,101339.75
2022-12-04T15:55:55.063Z,101351.09
2022-12-04T15:58:22.942Z,101358.50
2022-12-04T16:00:54.830Z,101346.88
2022-12-04T16:03:23.525Z,101346.88
2022-12-04T16:05:50.419Z,101355.41
2022-12-04T16:08:23.161Z,101345.41
2022-12-04T16:10:57.771Z,101360.66
2022-12-04T16:13:28.998Z,101351.53
2022-12-04T16:15:57.119Z,101351.50
2022-12-04T16:18:23.697Z,101362.25
2022-12-04T16:20:50.326Z,101363.63
2022-12-04T16:23:16.919Z,101357.25
2022-12-04T16:25:43.474Z,101365.84
2022-12-04T16:28:11.766Z,101362.25
2022-12-04T16:30:38.316Z,101356.78
2022-12-04T16:33:05.109Z,101364.50
2022-12-04T16:35:31.748Z,101355.97
2022-12-04T16:37:58.348Z,101364.25
2022-12-04T16:40:24.906Z,101368.91
2022-12-04T16:42:51.510Z,101368.31
2022-12-04T16:45:21.755Z,101365.00
2022-12-04T16:47:48.411Z,101364.41
2022-12-04T16:50:15.067Z,101355.84
2022-12-04T16:52:41.689Z,101357.34
2022-12-04T16:55:13.370Z,101365.91
2022-12-04T16:57:39.910Z,101360.88
2022-12-04T17:00:07.141Z,101371.66
2022-12-04T17:02:35.175Z,101362.16
2022-12-04T17:05:01.938Z,101374.69
2022-12-04T17:07:28.654Z,101366.16
2022-12-04T17:09:55.262Z,101369.91
2022-12-04T17:12:21.853Z,101371.84
2022-12-04T17:14:48.459Z,101374.31
2022-12-04T17:17:15.171Z,101379.59
2022-12-04T17:19:43.225Z,101383.19
2022-12-04T17:22:09.811Z,101383.19
2022-12-04T17:24:41.931Z,101383.41
2022-12-04T17:27:14.303Z,101384.69
2022-12-04T17:29:40.860Z,101389.16
2022-12-04T17:32:07.640Z,101385.66
2022-12-04T17:34:34.240Z,101390.84
2022-12-04T17:37:02.185Z,101380.34
2022-12-04T17:39:28.933Z,101385.56
2022-12-04T17:41:55.491Z,101383.13
2022-12-04T17:44:22.163Z,101389.28
2022-12-04T17:46:48.830Z,101387.03
2022-12-04T17:49:15.379Z,101385.28
2022-12-04T17:51:41.978Z,101390.00
2022-12-04T17:54:10.875Z,101393.84
2022-12-04T17:56:37.577Z,101393.03
2022-12-04T17:59:04.812Z,101393.81
2022-12-04T18:01:31.473Z,101398.34
2022-12-04T18:03:58.913Z,101394.59
2022-12-04T18:06:26.474Z,101396.56
2022-12-04T18:08:53.405Z,101393.66
2022-12-04T18:11:22.271Z,101402.41
2022-12-04T18:13:49.251Z,101407.53
2022-12-04T18:16:16.059Z,101406.53
2022-12-04T18:18:42.816Z,101407.38
2022-12-04T18:21:10.707Z,101396.78
2022-12-04T18:23:40.106Z,101398.84
2022-12-04T18:26:06.863Z,101403.25
2022-12-04T18:28:34.846Z,101395.09
2022-12-04T18:31:02.002Z,101400.75
2022-12-04T18:33:29.239Z,101405.19
2022-12-04T18:35:55.901Z,101407.00
2022-12-04T18:38:22.536Z,101404.06
2022-12-04T18:40:50.654Z,101403.94
2022-12-04T18:43:17.484Z,101409.72
2022-12-04T18:45:45.732Z,101415.59
2022-12-04T18:48:14.030Z,101409.56
2022-12-04T18:50:41.118Z,101415.31
2022-12-04T18:53:07.703Z,101423.09
2022-12-04T18:55:35.315Z,101419.78
2022-12-04T18:58:01.862Z,101420.28
2022-12-04T19:00:28.624Z,101423.94
2022-12-04T19:02:56.546Z,101422.44
2022-12-04T19:05:23.127Z,101426.88
2022-12-04T19:07:50.378Z,101424.44
2022-12-04T19:10:17.094Z,101425.63
2022-12-04T19:12:43.651Z,101425.19
2022-12-04T19:15:10.722Z,101425.84
2022-12-04T19:17:37.377Z,101433.03
2022-12-04T19:20:06.048Z,101443.22
2022-12-04T19:22:32.688Z,101438.16
2022-12-04T19:24:59.298Z,101438.88
2022-12-04T19:27:27.602Z,101441.00
2022-12-04T19:29:54.467Z,101446.63
2022-12-04T19:32:22.009Z,101444.97
2022-12-04T19:34:49.234Z,101446.94
2022-12-04T19:37:17.553Z,101446.66
2022-12-04T19:39:44.238Z,101449.84
2022-12-04T19:42:11.092Z,101447.16
2022-12-04T19:44:52.996Z,101456.47
2022-12-04T19:47:19.662Z,101459.91
2022-12-04T19:49:46.687Z,101458.72
2022-12-04T19:52:13.359Z,101459.88
2022-12-04T19:54:41.573Z,101451.06
2022-12-04T19:57:08.186Z,101460.69
2022-12-04T19:59:38.559Z,101457.09
2022-12-04T20:02:06.516Z,101461.97
2022-12-04T20:04:33.097Z,101459.88
2022-12-04T20:06:59.717Z,101463.47
2022-12-04T20:09:27.404Z,101466.75
2022-12-04T20:11:55.564Z,101458.69
2022-12-04T20:14:22.250Z,101461.81
2022-12-04T20:16:48.908Z,101460.91
2022-12-04T20:19:16.451Z,101460.97
2022-12-04T20:21:43.323Z,101456.66
2022-12-04T20:24:11.368Z,101462.97
2022-12-04T20:26:38.837Z,101461.63
2022-12-04T20:29:07.613Z,101468.81
2022-12-04T20:31:35.411Z,101462.16
2022-12-04T20:34:02.919Z,101460.66
2022-12-04T20:36:30.484Z,101456.84
2022-12-04T20:39:01.157Z,101455.44
2022-12-04T20:41:28.201Z,101467.97
2022-12-04T20:43:55.310Z,101463.00
2022-12-04T20:46:26.705Z,101461.06
2022-12-04T20:48:53.786Z,101455.25
2022-12-04T20:51:21.142Z,101458.31
2022-12-04T20:53:48.271Z,101469.41
2022-12-04T20:56:15.041Z,101465.78
2022-12-04T20:58:41.714Z,101463.31
2022-12-04T21:01:09.051Z,101469.13
2022-12-04T21:03:37.087Z,101472.09
2022-12-04T21:06:03.832Z,101472.72
2022-12-04T21:08:49.566Z,101471.28
2022-12-04T21:11:16.132Z,101465.22
2022-12-04T21:14:01.520Z,101470.44
2022-12-04T21:16:28.244Z,101474.06
2022-12-04T21:18:56.301Z,101477.38
2022-12-04T21:21:23.024Z,101475.19
2022-12-04T21:23:49.607Z,101472.44
2022-12-04T21:26:16.353Z,101474.66
2022-12-04T21:28:42.989Z,101471.88
2022-12-04T21:31:10.088Z,101473.78
2022-12-04T21:33:36.975Z,101470.50
2022-12-04T21:36:06.107Z,101471.06
2022-12-04T21:38:33.101Z,101481.00
2022-12-04T21:40:59.736Z,101467.19
2022-12-04T21:43:27.631Z,101470.50
2022-12-04T21:45:58.064Z,101475.47
2022-12-04T21:48:24.725Z,101466.97
2022-12-04T21:50:51.311Z,101480.19
2022-12-04T21:53:19.276Z,101475.16
2022-12-04T21:55:49.551Z,101475.47
2022-12-04T21:58:16.188Z,101468.00
2022-12-04T22:00:42.880Z,101469.44
2022-12-04T22:03:09.593Z,101468.31
2022-12-04T22:05:36.259Z,101476.66
2022-12-04T22:08:03.014Z,101467.50
2022-12-04T22:10:30.959Z,101467.13
2022-12-04T22:12:57.717Z,101471.06
2022-12-04T22:15:24.360Z,101473.59
2022-12-04T22:17:50.968Z,101473.00
2022-12-04T22:20:17.673Z,101484.59
2022-12-04T22:22:44.233Z,101478.56
2022-12-04T22:25:10.811Z,101476.34
2022-12-04T22:27:38.776Z,101482.66
2022-12-04T22:30:06.261Z,101473.56
2022-12-04T22:32:32.921Z,101481.56
2022-12-04T22:34:59.458Z,101482.16
2022-12-04T22:37:26.179Z,101478.28
2022-12-04T22:39:52.775Z,101471.31
2022-12-04T22:42:19.543Z,101472.44
2022-12-04T22:44:47.534Z,101476.88
2022-12-04T22:47:14.161Z,101465.59
2022-12-04T22:49:40.782Z,101463.56
2022-12-04T22:52:07.382Z,101474.41
2022-12-04T22:54:33.922Z,101471.63
2022-12-04T22:57:00.575Z,101465.25
2022-12-04T22:59:27.202Z,101475.22
2022-12-04T23:01:55.253Z,101470.25
2022-12-04T23:04:21.810Z,101468.31
2022-12-04T23:06:48.478Z,101468.63
2022-12-04T23:09:16.121Z,101472.50
2022-12-04T23:11:43.667Z,101464.53
2022-12-04T23:14:12.452Z,101465.03
2022-12-04T23:16:39.614Z,101459.25
2022-12-04T23:19:08.346Z,101475.19
2022-12-04T23:21:35.287Z,101469.69
2022-12-04T23:24:02.081Z,101474.97
2022-12-04T23:26:30.877Z,101475.28
2022-12-04T23:28:57.827Z,101470.28
2022-12-04T23:31:25.244Z,101464.50
2022-12-04T23:33:51.869Z,101473.34
2022-12-04T23:36:20.090Z,101474.47
2022-12-04T23:38:46.925Z,101478.81
2022-12-04T23:41:17.104Z,101472.81
2022-12-04T23:43:44.071Z,101476.91
2022-12-04T23:46:11.968Z,101477.78
2022-12-04T23:48:39.199Z,101480.81
2022-12-04T23:51:05.920Z,101485.81
2022-12-04T23:53:33.881Z,101485.50
2022-12-04T23:56:02.347Z,101480.25
2022-12-04T23:58:29.027Z,101481.84
